Bei Facebook empfehlenBei Twitter postenGoogle plusPinterest

Das Wetter im Erzgebirge am 22.08.2017

Wetter und Klima am 22.08.2017 Holzhau im Erzgebirge (630m ü.NN)
Letzte gemessene Temperatur und Uhrzeit der Messung23:45:00 Uhr4.70 °C
Temperatur (Maximum / Höchstwert) und Uhrzeit der Messung15:00:00 Uhr19.60 °C
Temperatur (Minimum / Tiefstwert) und Uhrzeit der Messung06:30:004.10 °C
Errechneter Absolutwert der Temperaturschwankungen zwischen Tmin und Tmax des Tages15.50 K
Errechnete Tagesmitteltemperatur10.96458 °C
Gesamt - Niederschlag des Tages (in flüssiger Form)0.00 Liter / m²
Luftdruck (Maximum / Höchstwert) und Zeitpunkt der Messung00:00:00 Uhr1018.70 hPa
Luftdruck (Minimum / Tiefstwert) und Zeitpunkt der Messung19:30:00 Uhr1016.20 hPa
Errechneter Absolutwert der Luftdruckschwankungen des Tages2.50 hPa
Höchste gemessene Windgeschwindigkeit und Uhrzeit der Messung15:00:00 Uhr27.36 km/h
Errechnete Windhäufigkeit in Relation zu den Messwerten des Tages8.33333 %
Niedrigste Windkühle (Windchill) und Zeitpunkt der Messung06:30:00 Uhr4.10 °C
Taupunkt (Maximum / Höchstwert) und Uhrzeit der Messung10:00:00 Uhr11.90 °C
Taupunkt (Minimum / Tiefstwert) und Uhrzeit der Messung23:45:002.70 °C
Anzahl der automatisch eingelesenen Messwerte 96

Detaillierte Wetter- und Klima- Messwerte für den 22.08.2017 in Holzhau im Erzgebirge (630m ü.NN)
ZeitTemperaturLuftdruckRel. LuftfeuchteWindWindrichtungWindchillTaupunktNiederschlag l/m²
23:45:004.70 °C1016.40 hPa87.00 %2.70 °C 
23:30:005.10 °C1016.40 hPa86.00 %3.00 °C 
23:15:005.30 °C1016.40 hPa86.00 %3.20 °C 
23:00:005.60 °C1016.70 hPa86.00 %3.40 °C 
22:45:006.10 °C1016.60 hPa85.00 %3.80 °C 
22:30:006.50 °C1016.50 hPa84.00 %4.00 °C 
22:15:007.10 °C1016.60 hPa84.00 %4.60 °C 
22:00:007.60 °C1016.80 hPa83.00 %4.90 °C 
21:45:008.10 °C1016.80 hPa82.00 %5.20 °C 
21:30:008.70 °C1016.90 hPa81.00 %5.60 °C 
21:15:009.20 °C1016.90 hPa81.00 %6.10 °C 
21:00:009.40 °C1016.90 hPa79.00 %5.90 °C 
20:45:009.80 °C1016.70 hPa78.00 %6.20 °C 
20:30:0010.20 °C1016.70 hPa76.00 %6.20 °C 
20:15:0011.10 °C1016.60 hPa74.00 %6.60 °C 
20:00:0012.00 °C1016.30 hPa71.00 %6.90 °C 
19:45:0012.80 °C1016.50 hPa69.00 %7.30 °C 
19:30:0013.40 °C1016.20 hPa68.00 %7.60 °C 
19:15:0013.90 °C1016.50 hPa67.00 %7.90 °C 
19:00:0014.30 °C1016.20 hPa66.00 %8.00 °C 
18:45:0014.70 °C1016.30 hPa66.00 %8.40 °C 
18:30:0015.10 °C1016.40 hPa65.00 %8.60 °C 
18:15:0015.60 °C1016.50 hPa65.00 %9.10 °C 
18:00:0016.00 °C1016.50 hPa62.00 %8.70 °C 
17:45:0016.60 °C1016.50 hPa63.00 %9.50 °C 
17:30:0016.60 °C1016.50 hPa62.00 %9.30 °C 
17:15:0016.80 °C1016.30 hPa63.00 %9.70 °C 
17:00:0016.90 °C1016.70 hPa61.00 %9.30 °C 
16:45:0017.60 °C1016.70 hPa59.00 %9.50 °C 
16:30:0018.10 °C1016.60 hPa58.00 %9.70 °C 
16:15:0019.10 °C1016.50 hPa57.00 %10.44 km/hW19.10 °C10.40 °C 
16:00:0018.90 °C1016.70 hPa58.00 %10.50 °C 
15:45:0018.80 °C1016.60 hPa60.00 %10.90 °C 
15:30:0017.80 °C1016.70 hPa59.00 %9.70 °C 
15:15:0019.30 °C1016.80 hPa53.00 %9.50 °C 
15:00:0019.60 °C1016.90 hPa55.00 %27.36 km/hW20.30 °C10.30 °C 
14:45:0018.50 °C1017.00 hPa55.00 %9.30 °C 
14:30:0019.20 °C1017.00 hPa53.00 %3.96 km/hWNW19.20 °C9.40 °C 
14:15:0019.20 °C1017.30 hPa56.00 %9.00 km/hW19.20 °C10.20 °C 
14:00:0018.10 °C1017.30 hPa56.00 %9.20 °C 
13:45:0018.10 °C1017.20 hPa59.00 %5.04 km/hNNW18.10 °C10.00 °C 
13:30:0018.60 °C1017.20 hPa56.00 %1.44 km/hNW18.60 °C9.70 °C 
13:15:0018.70 °C1017.10 hPa58.00 %10.30 °C 
13:00:0018.10 °C1017.40 hPa57.00 %9.50 °C 
12:45:0017.90 °C1017.50 hPa59.00 %9.80 °C 
12:30:0016.90 °C1017.60 hPa63.00 %9.80 °C 
12:15:0016.60 °C1017.60 hPa65.00 %10.00 °C 
12:00:0016.40 °C1017.70 hPa65.00 %9.80 °C 
11:45:0016.40 °C1017.90 hPa64.00 %9.60 °C 
11:30:0016.60 °C1017.80 hPa65.00 %10.00 °C 
11:15:0016.60 °C1017.90 hPa66.00 %6.48 km/hWSW16.60 °C10.20 °C 
11:00:0016.60 °C1017.90 hPa68.00 %10.70 °C 
10:45:0016.40 °C1018.00 hPa68.00 %10.50 °C 
10:30:0016.40 °C1018.00 hPa70.00 %10.90 °C 
10:15:0016.10 °C1017.90 hPa70.00 %1.44 km/hSW16.10 °C10.60 °C 
10:00:0016.30 °C1017.80 hPa75.00 %11.90 °C 
09:45:0015.10 °C1018.00 hPa79.00 %11.50 °C 
09:30:0014.40 °C1018.10 hPa81.00 %11.20 °C 
09:15:0013.60 °C1018.20 hPa85.00 %11.10 °C 
09:00:0012.00 °C1018.00 hPa89.00 %10.20 °C 
08:45:0011.20 °C1018.10 hPa91.00 %9.80 °C 
08:30:009.90 °C1018.30 hPa92.00 %8.70 °C 
08:15:008.90 °C1018.30 hPa93.00 %7.80 °C 
08:00:007.80 °C1018.10 hPa93.00 %6.70 °C 
07:45:006.70 °C1017.90 hPa93.00 %5.70 °C 
07:30:006.10 °C1018.00 hPa93.00 %5.10 °C 
07:15:005.60 °C1017.90 hPa93.00 %4.60 °C 
07:00:005.10 °C1018.10 hPa93.00 %4.10 °C 
06:45:004.40 °C1018.10 hPa93.00 %3.40 °C 
06:30:004.10 °C1018.00 hPa92.00 %2.90 °C 
06:15:004.10 °C1018.00 hPa92.00 %2.90 °C 
06:00:004.20 °C1018.10 hPa92.00 %3.00 °C 
05:45:004.30 °C1018.10 hPa92.00 %3.10 °C 
05:30:004.60 °C1017.90 hPa92.00 %3.40 °C 
05:15:004.70 °C1018.00 hPa92.00 %3.50 °C 
05:00:004.50 °C1018.10 hPa92.00 %3.30 °C 
04:45:004.30 °C1018.00 hPa92.00 %3.10 °C 
04:30:004.40 °C1018.10 hPa92.00 %3.20 °C 
04:15:004.40 °C1018.10 hPa92.00 %3.20 °C 
04:00:004.60 °C1018.10 hPa92.00 %3.40 °C 
03:45:004.80 °C1018.20 hPa92.00 %3.60 °C 
03:30:004.80 °C1018.10 hPa92.00 %3.60 °C 
03:15:004.40 °C1018.30 hPa91.00 %3.10 °C 
03:00:004.40 °C1018.30 hPa91.00 %3.10 °C 
02:45:004.60 °C1018.10 hPa91.00 %3.30 °C 
02:30:004.90 °C1018.00 hPa91.00 %3.60 °C 
02:15:004.90 °C1017.90 hPa91.00 %3.60 °C 
02:00:004.90 °C1017.90 hPa90.00 %3.40 °C 
01:45:005.10 °C1018.10 hPa90.00 %3.60 °C 
01:30:004.90 °C1018.30 hPa90.00 %3.40 °C 
01:15:004.80 °C1018.40 hPa90.00 %3.30 °C 
01:00:004.80 °C1018.60 hPa90.00 %3.30 °C 
00:45:004.90 °C1018.60 hPa89.00 %3.20 °C 
00:30:004.90 °C1018.50 hPa89.00 %3.20 °C 
00:15:005.10 °C1018.60 hPa88.00 %3.30 °C 
00:00:005.30 °C1018.70 hPa88.00 %3.50 °C 

Permanenter Link zu dieser Seite: Wetter im Erzgebirge am 22.08.2017
Performance-Info: Die Erstellung der Seite / Statistik(en) / Tabelle(n) erforderte 5 Datenbankserver-Abfrage(n) und dauerte 103 Millisekunden. (Dieser Messwert ist von der Gesamt-Auslastung des Servers abhängig.)
Erzgebirge - Wetter | Erzgebirge - Wetter (Mobilgeräte) | Komplette Klimadatenbank